createdAt,value
2017-04-13T00:00:36.946Z,0
2017-04-13T00:01:36.994Z,0
2017-04-13T00:02:37.048Z,0
2017-04-13T00:03:37.104Z,0
2017-04-13T00:04:37.157Z,0
2017-04-13T00:05:37.204Z,0
2017-04-13T00:06:37.259Z,0
2017-04-13T00:07:37.312Z,0
2017-04-13T00:08:37.362Z,0
2017-04-13T00:09:37.415Z,0
2017-04-13T00:10:37.469Z,0
2017-04-13T00:11:37.520Z,0
2017-04-13T00:12:37.573Z,0
2017-04-13T00:13:37.625Z,0
2017-04-13T00:14:37.680Z,0
2017-04-13T00:15:37.725Z,0
2017-04-13T00:16:37.485Z,0
2017-04-13T00:17:37.834Z,0
2017-04-13T00:18:37.884Z,0
2017-04-13T00:19:37.634Z,0
2017-04-13T00:20:37.986Z,0
2017-04-13T00:21:37.742Z,0
2017-04-13T00:22:38.098Z,0
2017-04-13T00:23:38.149Z,0
2017-04-13T00:24:37.902Z,0
2017-04-13T00:25:38.252Z,0
2017-04-13T00:26:38.305Z,0
2017-04-13T00:27:38.359Z,0
2017-04-13T00:28:38.418Z,0
2017-04-13T00:29:38.466Z,0
2017-04-13T00:30:38.511Z,0
2017-04-13T00:31:38.560Z,0
2017-04-13T00:32:38.623Z,0
2017-04-13T00:33:38.673Z,0
2017-04-13T00:34:38.726Z,0
2017-04-13T00:35:38.777Z,0
2017-04-13T00:36:38.828Z,0
2017-04-13T00:37:38.880Z,0
2017-04-13T00:38:38.931Z,0
2017-04-13T00:39:38.981Z,0
2017-04-13T00:40:38.746Z,0
2017-04-13T00:41:39.096Z,0
2017-04-13T00:42:39.142Z,0
2017-04-13T00:43:38.891Z,0
2017-04-13T00:44:39.244Z,0
2017-04-13T00:45:39.300Z,0
2017-04-13T00:46:39.346Z,0
2017-04-13T00:47:39.401Z,0
2017-04-13T00:48:39.455Z,0
2017-04-13T00:49:39.503Z,0
2017-04-13T00:50:39.556Z,0
2017-04-13T00:51:39.607Z,0
2017-04-13T00:52:39.660Z,0
2017-04-13T00:53:39.709Z,0
2017-04-13T00:54:39.766Z,0
2017-04-13T00:55:39.818Z,0
2017-04-13T00:56:39.868Z,0
2017-04-13T00:57:39.923Z,0
2017-04-13T00:58:39.975Z,0
2017-04-13T00:59:40.028Z,0
2017-04-13T01:00:40.077Z,0
2017-04-13T01:01:40.126Z,0
2017-04-13T01:02:40.180Z,0
2017-04-13T01:03:40.234Z,0
2017-04-13T01:04:40.286Z,0
2017-04-13T01:05:40.337Z,0
2017-04-13T01:06:40.436Z,0
2017-04-13T01:07:40.437Z,0
2017-04-13T01:08:40.494Z,0
2017-04-13T01:09:40.547Z,0
2017-04-13T01:10:40.600Z,0
2017-04-13T01:11:40.649Z,0
2017-04-13T01:12:40.698Z,0
2017-04-13T01:13:40.755Z,0
2017-04-13T01:14:40.804Z,0
2017-04-13T01:15:40.861Z,0
2017-04-13T01:16:40.917Z,0
2017-04-13T01:17:40.969Z,0
2017-04-13T01:18:41.012Z,0
2017-04-13T01:19:41.066Z,0
2017-04-13T01:20:41.121Z,0
2017-04-13T01:21:41.169Z,0
2017-04-13T01:22:41.224Z,0
2017-04-13T01:23:41.317Z,0
2017-04-13T01:24:41.323Z,0
2017-04-13T01:25:41.378Z,0
2017-04-13T01:26:41.425Z,0
2017-04-13T01:27:41.484Z,0
2017-04-13T01:28:41.532Z,0
2017-04-13T01:29:41.587Z,0
2017-04-13T01:30:41.642Z,0
2017-04-13T01:31:41.691Z,0
2017-04-13T01:32:41.745Z,0
2017-04-13T01:33:41.803Z,0
2017-04-13T01:34:41.845Z,0
2017-04-13T01:35:41.901Z,0
2017-04-13T01:36:41.948Z,0
2017-04-13T01:37:42.004Z,0
2017-04-13T01:38:42.066Z,0
2017-04-13T01:39:42.103Z,0
2017-04-13T01:40:42.162Z,0
2017-04-13T01:41:41.914Z,0
2017-04-13T01:42:42.263Z,0
2017-04-13T01:43:42.311Z,0
2017-04-13T01:44:42.364Z,0
2017-04-13T01:45:42.421Z,0
2017-04-13T01:46:42.470Z,0
2017-04-13T01:47:42.521Z,0
2017-04-13T01:48:42.270Z,0
2017-04-13T01:49:42.324Z,0
2017-04-13T01:50:42.679Z,0
2017-04-13T01:51:42.726Z,0
2017-04-13T01:52:42.784Z,0
2017-04-13T01:53:42.836Z,0
2017-04-13T01:54:42.583Z,0
2017-04-13T01:55:42.938Z,0
2017-04-13T01:56:42.991Z,0
2017-04-13T01:57:43.044Z,0
2017-04-13T01:58:43.094Z,0
2017-04-13T01:59:43.153Z,0
2017-04-13T02:00:43.205Z,0
2017-04-13T02:01:42.949Z,0
2017-04-13T02:02:43.298Z,0
2017-04-13T02:03:43.356Z,0
2017-04-13T02:04:43.401Z,0
2017-04-13T02:05:43.455Z,0
2017-04-13T02:06:43.513Z,0
2017-04-13T02:07:43.257Z,0
2017-04-13T02:08:43.613Z,0
2017-04-13T02:09:43.663Z,0
2017-04-13T02:10:43.720Z,0
2017-04-13T02:11:43.766Z,0
2017-04-13T02:12:43.823Z,0
2017-04-13T02:13:43.579Z,0
2017-04-13T02:14:43.923Z,0
2017-04-13T02:15:43.977Z,0
2017-04-13T02:16:44.029Z,0
2017-04-13T02:17:44.078Z,0
2017-04-13T02:18:44.132Z,0
2017-04-13T02:19:44.189Z,0
2017-04-13T02:20:44.236Z,0
2017-04-13T02:21:44.287Z,0
2017-04-13T02:22:44.343Z,0
2017-04-13T02:23:44.391Z,0
2017-04-13T02:24:44.444Z,0
2017-04-13T02:25:44.494Z,0
2017-04-13T02:26:44.551Z,0
2017-04-13T02:27:44.299Z,0
2017-04-13T02:28:44.649Z,0
2017-04-13T02:29:44.450Z,0
2017-04-13T02:30:44.457Z,0
2017-04-13T02:31:44.809Z,0
2017-04-13T02:32:44.904Z,0
2017-04-13T02:33:44.915Z,0
2017-04-13T02:34:44.965Z,0
2017-04-13T02:35:45.015Z,0
2017-04-13T02:36:45.070Z,0
2017-04-13T02:37:45.120Z,0
2017-04-13T02:38:45.175Z,0
2017-04-13T02:39:45.226Z,0
2017-04-13T02:40:45.276Z,0
2017-04-13T02:41:45.330Z,0
2017-04-13T02:42:45.386Z,0
2017-04-13T02:43:45.435Z,0
2017-04-13T02:44:45.489Z,0
2017-04-13T02:45:45.540Z,0
2017-04-13T02:46:45.592Z,0
2017-04-13T02:47:45.641Z,0
2017-04-13T02:48:45.691Z,0
2017-04-13T02:49:45.749Z,0
2017-04-13T02:50:45.800Z,0
2017-04-13T02:51:45.849Z,0
2017-04-13T02:52:45.906Z,0
2017-04-13T02:53:45.954Z,0
2017-04-13T02:54:46.009Z,0
2017-04-13T02:55:46.055Z,0
2017-04-13T02:56:46.115Z,0
2017-04-13T02:57:46.163Z,0
2017-04-13T02:58:46.210Z,0
2017-04-13T02:59:46.268Z,0
2017-04-13T03:00:46.320Z,0
2017-04-13T03:01:46.414Z,0
2017-04-13T03:02:46.425Z,0
2017-04-13T03:03:46.472Z,0
2017-04-13T03:04:46.528Z,0
2017-04-13T03:05:46.578Z,0
2017-04-13T03:06:46.637Z,0
2017-04-13T03:07:46.685Z,0
2017-04-13T03:08:46.736Z,0
2017-04-13T03:09:46.791Z,0
2017-04-13T03:10:46.836Z,0
2017-04-13T03:11:46.893Z,0
2017-04-13T03:12:46.947Z,0
2017-04-13T03:13:46.998Z,0
2017-04-13T03:14:47.051Z,0
2017-04-13T03:15:46.804Z,0
2017-04-13T03:16:47.155Z,0
2017-04-13T03:17:47.210Z,0
2017-04-13T03:18:47.263Z,0
2017-04-13T03:19:47.312Z,0
2017-04-13T03:20:47.358Z,0
2017-04-13T03:21:47.413Z,0
2017-04-13T03:22:47.462Z,0
2017-04-13T03:23:47.521Z,0
2017-04-13T03:24:47.569Z,0
2017-04-13T03:25:47.619Z,0
2017-04-13T03:26:47.672Z,0
2017-04-13T03:27:47.729Z,0
2017-04-13T03:28:47.787Z,0
2017-04-13T03:29:47.828Z,0
2017-04-13T03:30:47.878Z,0
2017-04-13T03:31:47.933Z,0
2017-04-13T03:32:47.983Z,0
2017-04-13T03:33:48.035Z,0
2017-04-13T03:34:48.128Z,0
2017-04-13T03:35:48.142Z,0
2017-04-13T03:36:48.194Z,0
2017-04-13T03:37:48.249Z,0
2017-04-13T03:38:48.294Z,0
2017-04-13T03:39:48.349Z,0
2017-04-13T03:40:48.404Z,0
2017-04-13T03:41:48.453Z,0
2017-04-13T03:42:48.507Z,0
2017-04-13T03:43:48.556Z,0
2017-04-13T03:44:48.611Z,0
2017-04-13T03:45:48.662Z,0
2017-04-13T03:46:48.711Z,0
2017-04-13T03:47:48.767Z,0
2017-04-13T03:48:48.814Z,0
2017-04-13T03:49:48.867Z,0
2017-04-13T03:50:48.920Z,0
2017-04-13T03:51:48.973Z,0
2017-04-13T03:52:49.026Z,0
2017-04-13T03:53:49.076Z,0
2017-04-13T03:54:49.137Z,0
2017-04-13T03:55:49.225Z,0
2017-04-13T03:56:49.234Z,0
2017-04-13T03:57:49.290Z,0
2017-04-13T03:58:49.347Z,0
2017-04-13T03:59:49.390Z,0
2017-04-13T04:00:49.436Z,0
2017-04-13T04:01:49.493Z,0
2017-04-13T04:02:49.541Z,0
2017-04-13T04:03:49.593Z,0
2017-04-13T04:04:49.345Z,0
2017-04-13T04:05:49.697Z,0
2017-04-13T04:06:49.748Z,0
2017-04-13T04:07:49.803Z,0
2017-04-13T04:08:49.549Z,0
2017-04-13T04:09:49.912Z,0
2017-04-13T04:10:49.958Z,0
2017-04-13T04:11:50.008Z,4
2017-04-13T04:12:50.060Z,4
2017-04-13T04:13:50.115Z,4
2017-04-13T04:14:50.166Z,4
2017-04-13T04:15:50.218Z,4
2017-04-13T04:16:50.269Z,8
2017-04-13T04:17:50.331Z,8
2017-04-13T04:18:50.373Z,4
2017-04-13T04:19:50.427Z,8
2017-04-13T04:20:50.473Z,8
2017-04-13T04:21:50.527Z,12
2017-04-13T04:22:50.278Z,12
2017-04-13T04:23:50.334Z,16
2017-04-13T04:24:50.684Z,16
2017-04-13T04:25:50.737Z,20
2017-04-13T04:26:50.786Z,16
2017-04-13T04:27:50.837Z,20
2017-04-13T04:28:50.897Z,20
2017-04-13T04:29:50.943Z,20
2017-04-13T04:30:50.690Z,28
2017-04-13T04:31:51.045Z,32
2017-04-13T04:32:51.097Z,36
2017-04-13T04:33:51.148Z,44
2017-04-13T04:34:51.202Z,48
2017-04-13T04:35:51.254Z,52
2017-04-13T04:36:51.306Z,56
2017-04-13T04:37:51.354Z,64
2017-04-13T04:38:51.408Z,76
2017-04-13T04:39:51.462Z,84
2017-04-13T04:40:51.520Z,92
2017-04-13T04:41:51.561Z,112
2017-04-13T04:42:51.620Z,108
2017-04-13T04:43:51.666Z,116
2017-04-13T04:44:51.724Z,132
2017-04-13T04:45:51.780Z,140
2017-04-13T04:46:51.828Z,140
2017-04-13T04:47:51.872Z,164
2017-04-13T04:48:51.924Z,164
2017-04-13T04:49:51.974Z,184
2017-04-13T04:50:52.029Z,240
2017-04-13T04:51:52.081Z,264
2017-04-13T04:52:52.136Z,368
2017-04-13T04:53:52.187Z,468
2017-04-13T04:54:52.249Z,460
2017-04-13T04:55:52.295Z,400
2017-04-13T04:56:52.346Z,500
2017-04-13T04:57:52.405Z,516
2017-04-13T04:58:52.442Z,488
2017-04-13T04:59:52.498Z,536
2017-04-13T05:00:52.549Z,712
2017-04-13T05:01:52.603Z,636
2017-04-13T05:02:52.651Z,720
2017-04-13T05:03:52.705Z,748
2017-04-13T05:04:52.756Z,580
2017-04-13T05:05:52.810Z,544
2017-04-13T05:06:52.862Z,540
2017-04-13T05:07:52.911Z,628
2017-04-13T05:08:52.960Z,648
2017-04-13T05:09:53.012Z,712
2017-04-13T05:10:53.069Z,1020
2017-04-13T05:11:53.116Z,1080
2017-04-13T05:12:53.171Z,1000
2017-04-13T05:13:53.220Z,1120
2017-04-13T05:14:53.272Z,1544
2017-04-13T05:15:53.326Z,1536
2017-04-13T05:16:53.379Z,1280
2017-04-13T05:17:53.426Z,1240
2017-04-13T05:18:53.482Z,1164
2017-04-13T05:19:53.534Z,1116
2017-04-13T05:20:53.586Z,1236
2017-04-13T05:21:53.639Z,1096
2017-04-13T05:22:53.691Z,1080
2017-04-13T05:23:53.738Z,1072
2017-04-13T05:24:53.791Z,800
2017-04-13T05:25:53.844Z,768
2017-04-13T05:26:53.894Z,772
2017-04-13T05:27:53.946Z,920
2017-04-13T05:28:53.999Z,1012
2017-04-13T05:29:54.049Z,900
2017-04-13T05:30:54.103Z,872
2017-04-13T05:31:54.160Z,1020
2017-04-13T05:32:54.214Z,1084
2017-04-13T05:33:54.262Z,948
2017-04-13T05:34:54.313Z,844
2017-04-13T05:35:54.366Z,660
2017-04-13T05:36:54.414Z,632
2017-04-13T05:37:54.470Z,748
2017-04-13T05:38:54.517Z,848
2017-04-13T05:39:54.569Z,796
2017-04-13T05:40:54.628Z,796
2017-04-13T05:41:54.680Z,840
2017-04-13T05:42:54.434Z,776
2017-04-13T05:43:54.784Z,844
2017-04-13T05:44:54.831Z,660
2017-04-13T05:45:54.887Z,572
2017-04-13T05:46:54.941Z,612
2017-04-13T05:47:54.989Z,696
2017-04-13T05:48:55.045Z,772
2017-04-13T05:49:55.093Z,856
2017-04-13T05:50:55.145Z,880
2017-04-13T05:51:55.210Z,828
2017-04-13T05:52:55.293Z,824
2017-04-13T05:53:55.303Z,808
2017-04-13T05:54:55.362Z,652
2017-04-13T05:55:55.407Z,928
2017-04-13T05:56:55.457Z,996
2017-04-13T05:57:55.510Z,856
2017-04-13T05:58:55.566Z,768
2017-04-13T05:59:55.611Z,832
2017-04-13T06:00:55.669Z,780
2017-04-13T06:01:55.723Z,772
2017-04-13T06:02:55.775Z,888
2017-04-13T06:03:55.824Z,860
2017-04-13T06:04:55.876Z,924
2017-04-13T06:05:55.929Z,960
2017-04-13T06:06:55.680Z,908
2017-04-13T06:07:56.030Z,864
2017-04-13T06:08:56.086Z,860
2017-04-13T06:09:56.138Z,748
2017-04-13T06:10:56.188Z,648
2017-04-13T06:11:56.239Z,680
2017-04-13T06:12:56.299Z,896
2017-04-13T06:13:56.347Z,1164
2017-04-13T06:14:56.398Z,988
2017-04-13T06:15:56.452Z,900
2017-04-13T06:16:56.549Z,952
2017-04-13T06:17:56.550Z,904
2017-04-13T06:18:56.603Z,952
2017-04-13T06:19:56.659Z,836
2017-04-13T06:20:56.713Z,784
2017-04-13T06:21:56.770Z,1120
2017-04-13T06:22:56.817Z,1168
2017-04-13T06:23:56.564Z,1068
2017-04-13T06:24:56.919Z,992
2017-04-13T06:25:56.965Z,996
2017-04-13T06:26:57.020Z,1040
2017-04-13T06:27:57.073Z,1152
2017-04-13T06:28:57.126Z,1028
2017-04-13T06:29:57.177Z,1100
2017-04-13T06:30:57.228Z,1320
2017-04-13T06:31:57.284Z,1312
2017-04-13T06:32:57.031Z,1552
2017-04-13T06:33:57.387Z,1440
2017-04-13T06:34:57.439Z,1372
2017-04-13T06:35:57.490Z,1292
2017-04-13T06:36:57.544Z,1384
2017-04-13T06:37:57.589Z,1544
2017-04-13T06:38:57.643Z,1944
2017-04-13T06:39:57.695Z,2212
2017-04-13T06:40:57.746Z,2100
2017-04-13T06:41:57.801Z,1792
2017-04-13T06:42:57.849Z,1620
2017-04-13T06:43:57.905Z,1688
2017-04-13T06:44:57.958Z,1908
2017-04-13T06:45:57.708Z,1912
2017-04-13T06:46:58.061Z,1768
2017-04-13T06:47:58.112Z,1816
2017-04-13T06:48:57.864Z,1872
2017-04-13T06:49:58.214Z,1972
2017-04-13T06:50:57.968Z,1832
2017-04-13T06:51:58.321Z,2348
2017-04-13T06:52:58.369Z,2372
2017-04-13T06:53:58.431Z,2024
2017-04-13T06:54:58.477Z,1564
2017-04-13T06:55:58.524Z,1448
2017-04-13T06:56:58.581Z,1324
2017-04-13T06:57:58.634Z,1436
2017-04-13T06:58:58.686Z,1484
2017-04-13T06:59:58.737Z,1380
2017-04-13T07:00:58.788Z,1244
2017-04-13T07:01:58.844Z,1232
2017-04-13T07:02:58.895Z,1340
2017-04-13T07:03:58.943Z,1560
2017-04-13T07:04:59.000Z,1596
2017-04-13T07:05:58.749Z,1588
2017-04-13T07:06:59.110Z,1504
2017-04-13T07:07:59.154Z,1656
2017-04-13T07:08:59.204Z,1584
2017-04-13T07:09:59.261Z,1476
2017-04-13T07:10:59.308Z,1628
2017-04-13T07:11:59.364Z,1852
2017-04-13T07:12:59.419Z,1788
2017-04-13T07:13:59.469Z,1888
2017-04-13T07:14:59.516Z,1648
2017-04-13T07:15:59.574Z,1700
2017-04-13T07:16:59.627Z,1668
2017-04-13T07:17:59.674Z,1728
2017-04-13T07:18:59.729Z,1636
2017-04-13T07:19:59.785Z,1500
2017-04-13T07:20:59.828Z,1308
2017-04-13T07:21:59.886Z,1292
2017-04-13T07:22:59.937Z,1256
2017-04-13T07:23:59.988Z,1396
2017-04-13T07:25:00.042Z,1512
2017-04-13T07:26:00.094Z,1508
2017-04-13T07:27:00.143Z,1528
2017-04-13T07:28:00.200Z,1388
2017-04-13T07:29:00.250Z,1384
2017-04-13T07:30:00.505Z,1296
2017-04-13T07:31:00.052Z,1236
2017-04-13T07:32:00.407Z,1300
2017-04-13T07:33:00.457Z,1332
2017-04-13T07:34:00.208Z,1296
2017-04-13T07:35:00.561Z,1356
2017-04-13T07:36:00.310Z,1228
2017-04-13T07:37:00.664Z,1200
2017-04-13T07:38:00.721Z,1300
2017-04-13T07:39:00.464Z,1384
2017-04-13T07:40:00.819Z,1336
2017-04-13T07:41:00.579Z,1380
2017-04-13T07:42:00.927Z,1400
2017-04-13T07:43:00.975Z,1376
2017-04-13T07:44:01.027Z,1236
2017-04-13T07:45:01.086Z,1272
2017-04-13T07:46:00.528Z,1188
2017-04-13T07:47:00.885Z,1268
2017-04-13T07:48:00.932Z,1244
2017-04-13T07:49:00.985Z,1176
2017-04-13T07:50:01.038Z,1520
2017-04-13T07:51:01.092Z,1464
2017-04-13T07:52:01.139Z,1324
2017-04-13T07:53:01.195Z,1220
2017-04-13T07:54:01.249Z,1432
2017-04-13T07:55:01.300Z,1356
2017-04-13T07:56:01.353Z,1324
2017-04-13T07:57:01.405Z,1368
2017-04-13T07:58:01.453Z,1392
2017-04-13T07:59:02.009Z,1356
2017-04-13T08:00:01.558Z,1288
2017-04-13T08:01:01.609Z,1440
2017-04-13T08:02:01.962Z,1472
2017-04-13T08:03:02.016Z,1308
2017-04-13T08:04:02.068Z,1280
2017-04-13T08:05:02.119Z,1336
2017-04-13T08:06:02.177Z,1252
2017-04-13T08:07:01.622Z,1248
2017-04-13T08:08:02.279Z,1312
2017-04-13T08:09:02.034Z,1248
2017-04-13T08:10:02.382Z,1388
2017-04-13T08:11:02.143Z,1372
2017-04-13T08:12:02.495Z,1232
2017-04-13T08:13:02.540Z,1304
2017-04-13T08:14:02.593Z,1456
2017-04-13T08:15:02.641Z,1468
2017-04-13T08:16:02.088Z,1468
2017-04-13T08:17:02.757Z,1516
2017-04-13T08:18:02.500Z,1620
2017-04-13T08:19:02.871Z,1584
2017-04-13T08:20:02.902Z,1524
2017-04-13T08:21:02.953Z,1484
2017-04-13T08:22:03.006Z,1652
2017-04-13T08:23:03.065Z,1788
2017-04-13T08:24:02.814Z,1612
2017-04-13T08:25:03.165Z,1652
2017-04-13T08:26:02.913Z,1484
2017-04-13T08:27:02.968Z,1644
2017-04-13T08:28:03.322Z,1640
2017-04-13T08:29:03.375Z,1604
2017-04-13T08:30:03.426Z,1572
2017-04-13T08:31:03.477Z,1776
2017-04-13T08:32:03.529Z,1800
2017-04-13T08:33:03.482Z,1800
2017-04-13T08:34:03.332Z,1636
2017-04-13T08:35:03.423Z,1596
2017-04-13T08:36:03.742Z,1436
2017-04-13T08:37:03.490Z,1604
2017-04-13T08:38:17.221Z,1632
2017-04-13T08:39:03.893Z,1496
2017-04-13T08:40:03.646Z,1476
2017-04-13T08:41:04.001Z,1408
2017-04-13T08:42:04.058Z,1484
2017-04-13T08:43:04.308Z,1672
2017-04-13T08:44:04.157Z,1508
2017-04-13T08:45:04.217Z,1568
2017-04-13T08:46:04.263Z,1464
2017-04-13T08:47:04.313Z,1416
2017-04-13T08:48:04.369Z,1420
2017-04-13T08:49:04.119Z,1600
2017-04-13T08:50:04.470Z,1644
2017-04-13T08:51:03.918Z,1668
2017-04-13T08:52:04.572Z,1824
2017-04-13T08:53:04.325Z,1952
2017-04-13T08:54:04.677Z,1868
2017-04-13T08:55:04.740Z,1880
2017-04-13T08:56:04.781Z,1980
2017-04-13T08:57:04.834Z,1900
2017-04-13T08:58:04.887Z,1752
2017-04-13T08:59:04.937Z,1760
2017-04-13T09:00:04.993Z,2264
2017-04-13T09:01:04.750Z,2188
2017-04-13T09:02:04.495Z,1788
2017-04-13T09:03:05.151Z,1968
2017-04-13T09:04:04.602Z,1820
2017-04-13T09:05:05.254Z,1744
2017-04-13T09:06:05.348Z,1708
2017-04-13T09:07:05.261Z,2252
2017-04-13T09:08:05.615Z,2128
2017-04-13T09:09:05.468Z,2176
2017-04-13T09:10:05.217Z,1980
2017-04-13T09:11:05.471Z,2200
2017-04-13T09:12:05.507Z,2092
2017-04-13T09:13:05.671Z,1968
2017-04-13T09:14:05.423Z,2616
2017-04-13T09:15:05.776Z,2280
2017-04-13T09:16:05.829Z,2436
2017-04-13T09:17:05.879Z,2288
2017-04-13T09:18:05.632Z,2280
2017-04-13T09:19:05.384Z,1852
2017-04-13T09:20:05.738Z,1784
2017-04-13T09:21:06.091Z,1976
2017-04-13T09:22:05.837Z,2112
2017-04-13T09:23:05.900Z,2556
2017-04-13T09:24:05.945Z,2820
2017-04-13T09:25:05.999Z,2728
2017-04-13T09:26:06.352Z,2232
2017-04-13T09:27:06.406Z,1792
2017-04-13T09:28:06.460Z,1944
2017-04-13T09:29:06.205Z,2028
2017-04-13T09:30:05.956Z,2220
2017-04-13T09:31:06.315Z,2208
2017-04-13T09:32:06.364Z,2116
2017-04-13T09:33:06.416Z,2136
2017-04-13T09:34:06.768Z,1964
2017-04-13T09:35:06.824Z,2020
2017-04-13T09:36:06.875Z,2020
2017-04-13T09:37:06.324Z,1976
2017-04-13T09:38:06.977Z,1776
2017-04-13T09:39:07.034Z,1996
2017-04-13T09:40:07.081Z,2272
2017-04-13T09:41:07.146Z,2248
2017-04-13T09:42:06.884Z,2152
2017-04-13T09:43:07.243Z,2084
2017-04-13T09:44:07.293Z,2176
2017-04-13T09:45:07.245Z,2272
2017-04-13T09:46:07.398Z,2172
2017-04-13T09:47:07.453Z,2004
2017-04-13T09:48:07.504Z,2092
2017-04-13T09:49:07.553Z,2228
2017-04-13T09:50:07.310Z,2072
2017-04-13T09:51:07.666Z,1964
2017-04-13T09:52:07.715Z,2188
2017-04-13T09:53:07.762Z,2392
2017-04-13T09:54:07.816Z,2304
2017-04-13T09:55:07.869Z,2004
2017-04-13T09:56:07.618Z,2020
2017-04-13T09:57:07.369Z,2172
2017-04-13T09:58:08.021Z,2608
2017-04-13T09:59:08.079Z,2744
2017-04-13T10:00:07.827Z,2364
2017-04-13T10:01:08.188Z,2324
2017-04-13T10:02:07.933Z,2736
2017-04-13T10:03:08.285Z,2916
2017-04-13T10:04:08.350Z,2452
2017-04-13T10:05:08.092Z,2160
2017-04-13T10:06:08.444Z,2596
2017-04-13T10:07:08.496Z,2624
2017-04-13T10:08:08.548Z,2564
2017-04-13T10:09:08.607Z,2532
2017-04-13T10:10:08.653Z,2544
2017-04-13T10:11:22.087Z,2696
2017-04-13T10:12:08.758Z,2720
2017-04-13T10:13:08.813Z,2700
2017-04-13T10:14:08.862Z,2704
2017-04-13T10:15:08.915Z,2652
2017-04-13T10:16:08.669Z,2800
2017-04-13T10:17:09.021Z,2560
2017-04-13T10:18:09.077Z,2360
2017-04-13T10:19:09.135Z,2388
2017-04-13T10:20:08.578Z,2692
2017-04-13T10:21:09.233Z,2740
2017-04-13T10:22:09.293Z,3112
2017-04-13T10:23:09.347Z,2880
2017-04-13T10:24:22.774Z,2932
2017-04-13T10:25:09.441Z,3024
2017-04-13T10:26:09.496Z,3164
2017-04-13T10:27:09.243Z,3244
2017-04-13T10:28:09.293Z,3348
2017-04-13T10:29:09.650Z,3492
2017-04-13T10:30:09.405Z,3160
2017-04-13T10:31:09.756Z,2996
2017-04-13T10:32:09.810Z,2796
2017-04-13T10:33:09.859Z,2816
2017-04-13T10:34:09.913Z,2848
2017-04-13T10:35:09.967Z,3456
2017-04-13T10:36:09.417Z,3940
2017-04-13T10:37:10.069Z,3624
2017-04-13T10:38:10.121Z,3600
2017-04-13T10:39:09.873Z,3928
2017-04-13T10:40:09.927Z,3780
2017-04-13T10:41:10.285Z,3708
2017-04-13T10:42:10.337Z,3540
2017-04-13T10:43:10.387Z,3192
2017-04-13T10:44:10.136Z,2872
2017-04-13T10:45:10.494Z,2992
2017-04-13T10:46:10.239Z,3104
2017-04-13T10:47:10.597Z,3200
2017-04-13T10:48:10.649Z,2980
2017-04-13T10:49:10.919Z,2892
2017-04-13T10:50:10.753Z,3104
2017-04-13T10:51:10.502Z,3524
2017-04-13T10:52:10.558Z,3908
2017-04-13T10:53:10.910Z,4192
2017-04-13T10:54:11.164Z,3980
2017-04-13T10:55:10.717Z,3860
2017-04-13T10:56:10.767Z,4316
2017-04-13T10:57:11.122Z,4004
2017-04-13T10:58:11.175Z,3720
2017-04-13T10:59:11.229Z,3536
2017-04-13T11:00:10.981Z,3220
2017-04-13T11:01:11.334Z,3124
2017-04-13T11:02:11.390Z,4028
2017-04-13T11:03:11.132Z,4312
2017-04-13T11:04:11.189Z,4008
2017-04-13T11:05:10.939Z,4088
2017-04-13T11:06:11.296Z,4484
2017-04-13T11:07:11.047Z,4528
2017-04-13T11:08:11.394Z,4376
2017-04-13T11:09:11.753Z,4276
2017-04-13T11:10:11.807Z,4060
2017-04-13T11:11:11.857Z,4072
2017-04-13T11:12:11.915Z,4348
2017-04-13T11:13:11.967Z,4940
2017-04-13T11:14:12.018Z,3984
2017-04-13T11:15:12.070Z,3864
2017-04-13T11:16:12.123Z,4492
2017-04-13T11:17:11.570Z,4192
2017-04-13T11:18:12.232Z,4316
2017-04-13T11:19:12.319Z,3620
2017-04-13T11:20:12.334Z,2976
2017-04-13T11:21:12.391Z,3016
2017-04-13T11:22:12.143Z,3752
2017-04-13T11:23:12.187Z,4300
2017-04-13T11:24:12.245Z,3468
2017-04-13T11:25:12.303Z,3352
2017-04-13T11:26:12.652Z,3604
2017-04-13T11:27:12.702Z,3792
2017-04-13T11:28:12.759Z,4032
2017-04-13T11:29:12.510Z,3684
2017-04-13T11:30:12.561Z,3328
2017-04-13T11:31:12.310Z,3500
2017-04-13T11:32:12.969Z,4368
2017-04-13T11:33:12.717Z,4052
2017-04-13T11:34:13.073Z,5292
2017-04-13T11:35:13.123Z,5476
2017-04-13T11:36:13.185Z,4568
2017-04-13T11:37:13.234Z,4316
2017-04-13T11:38:13.283Z,4348
2017-04-13T11:39:13.341Z,3904
2017-04-13T11:40:13.095Z,4596
2017-04-13T11:41:13.444Z,6548
2017-04-13T11:42:13.502Z,5520
2017-04-13T11:43:13.551Z,5000
2017-04-13T11:44:13.309Z,4788
2017-04-13T11:45:13.356Z,4644
2017-04-13T11:46:13.711Z,4436
2017-04-13T11:47:13.465Z,4368
2017-04-13T11:48:13.818Z,4404
2017-04-13T11:49:13.868Z,4408
2017-04-13T11:50:13.623Z,5376
2017-04-13T11:51:13.421Z,7004
2017-04-13T11:52:13.431Z,4696
2017-04-13T11:53:13.486Z,5580
2017-04-13T11:54:13.572Z,5496
2017-04-13T11:55:13.592Z,4628
2017-04-13T11:56:13.942Z,4612
2017-04-13T11:57:14.296Z,4868
2017-04-13T11:58:14.354Z,5100
2017-04-13T11:59:14.400Z,4780
2017-04-13T12:00:14.457Z,5116
2017-04-13T12:01:14.509Z,4944
2017-04-13T12:02:14.263Z,5688
2017-04-13T12:03:14.316Z,5596
2017-04-13T12:04:14.064Z,5104
2017-04-13T12:05:14.419Z,5356
2017-04-13T12:06:14.774Z,8832
2017-04-13T12:07:14.825Z,7428
2017-04-13T12:08:14.582Z,6304
2017-04-13T12:09:14.634Z,5512
2017-04-13T12:10:14.992Z,5108
2017-04-13T12:11:15.043Z,4816
2017-04-13T12:12:15.095Z,4916
2017-04-13T12:13:15.145Z,5432
2017-04-13T12:14:15.202Z,4020
2017-04-13T12:15:15.254Z,4368
2017-04-13T12:16:15.309Z,4924
2017-04-13T12:17:15.063Z,4916
2017-04-13T12:18:14.811Z,4676
2017-04-13T12:19:15.482Z,4268
2017-04-13T12:20:15.222Z,4568
2017-04-13T12:21:15.277Z,5500
2017-04-13T12:22:15.633Z,5948
2017-04-13T12:23:15.684Z,5864
2017-04-13T12:24:15.741Z,5992
2017-04-13T12:25:15.494Z,4056
2017-04-13T12:26:15.544Z,3520
2017-04-13T12:27:15.944Z,3964
2017-04-13T12:28:15.958Z,4348
2017-04-13T12:29:15.710Z,4808
2017-04-13T12:30:16.064Z,4984
2017-04-13T12:31:15.817Z,5148
2017-04-13T12:32:16.170Z,3636
2017-04-13T12:33:16.223Z,3800
2017-04-13T12:34:16.274Z,4100
2017-04-13T12:35:16.032Z,3848
2017-04-13T12:36:16.384Z,4028
2017-04-13T12:37:16.135Z,4856
2017-04-13T12:38:16.497Z,5100
2017-04-13T12:39:16.546Z,4992
2017-04-13T12:40:16.605Z,5064
2017-04-13T12:41:16.348Z,4584
2017-04-13T12:42:16.403Z,4612
2017-04-13T12:43:16.759Z,4432
2017-04-13T12:44:16.813Z,5248
2017-04-13T12:45:16.867Z,4564
2017-04-13T12:46:16.921Z,4044
2017-04-13T12:47:16.672Z,4052
2017-04-13T12:48:16.727Z,4412
2017-04-13T12:49:16.482Z,4400
2017-04-13T12:50:16.831Z,3840
2017-04-13T12:51:17.206Z,4236
2017-04-13T12:52:17.244Z,3716
2017-04-13T12:53:16.995Z,3804
2017-04-13T12:54:17.354Z,4692
2017-04-13T12:55:17.409Z,5312
2017-04-13T12:56:17.152Z,5108
2017-04-13T12:57:17.512Z,4980
2017-04-13T12:58:17.565Z,4468
2017-04-13T12:59:17.614Z,3720
2017-04-13T13:00:17.676Z,3844
2017-04-13T13:01:17.728Z,3524
2017-04-13T13:02:17.783Z,3644
2017-04-13T13:03:17.833Z,4136
2017-04-13T13:04:17.892Z,4540
2017-04-13T13:05:17.941Z,4320
2017-04-13T13:06:17.998Z,4344
2017-04-13T13:07:18.048Z,4132
2017-04-13T13:08:18.098Z,3676
2017-04-13T13:09:17.854Z,3560
2017-04-13T13:10:18.208Z,3676
2017-04-13T13:11:18.263Z,4028
2017-04-13T13:12:18.318Z,3784
2017-04-13T13:13:18.369Z,3868
2017-04-13T13:14:18.120Z,3288
2017-04-13T13:15:18.178Z,3304
2017-04-13T13:16:18.236Z,3992
2017-04-13T13:17:18.286Z,4672
2017-04-13T13:18:18.642Z,4976
2017-04-13T13:19:18.390Z,3920
2017-04-13T13:20:18.744Z,4176
2017-04-13T13:21:18.801Z,4020
2017-04-13T13:22:18.852Z,3888
2017-04-13T13:23:18.904Z,4080
2017-04-13T13:24:18.958Z,4120
2017-04-13T13:25:19.017Z,3568
2017-04-13T13:26:18.769Z,4032
2017-04-13T13:27:19.120Z,3620
2017-04-13T13:28:19.175Z,3340
2017-04-13T13:29:18.926Z,3504
2017-04-13T13:30:19.282Z,3012
2017-04-13T13:31:19.035Z,2968
2017-04-13T13:32:19.388Z,3236
2017-04-13T13:33:19.450Z,3792
2017-04-13T13:34:19.195Z,3692
2017-04-13T13:35:19.558Z,3428
2017-04-13T13:36:19.309Z,3140
2017-04-13T13:37:19.659Z,3716
2017-04-13T13:38:19.409Z,4280
2017-04-13T13:39:19.459Z,4192
2017-04-13T13:40:19.817Z,4428
2017-04-13T13:41:19.874Z,5088
2017-04-13T13:42:19.925Z,5180
2017-04-13T13:43:19.979Z,4060
2017-04-13T13:44:20.034Z,3984
2017-04-13T13:45:20.084Z,4176
2017-04-13T13:46:20.140Z,3996
2017-04-13T13:47:20.189Z,3540
2017-04-13T13:48:20.249Z,3768
2017-04-13T13:49:20.296Z,3652